createdAt,value
2023-08-17T00:01:27.255Z,101438.88
2023-08-17T00:06:31.304Z,101442.00
2023-08-17T00:11:34.306Z,101642.59
2023-08-17T00:16:37.103Z,101567.88
2023-08-17T00:21:41.217Z,101609.91
2023-08-17T00:26:44.402Z,101571.44
2023-08-17T00:31:47.284Z,101558.31
2023-08-17T00:36:51.423Z,101642.47
2023-08-17T00:41:54.363Z,101590.28
2023-08-17T00:46:57.833Z,101638.44
2023-08-17T00:52:05.985Z,101631.25
2023-08-17T00:57:09.637Z,101510.56
2023-08-17T01:02:12.479Z,101629.38
2023-08-17T01:07:16.656Z,101638.25
2023-08-17T01:12:27.905Z,101604.34
2023-08-17T01:17:39.358Z,101470.75
2023-08-17T01:22:44.517Z,101573.81
2023-08-17T01:27:48.690Z,101613.38
2023-08-17T01:32:56.008Z,101523.78
2023-08-17T01:38:04.778Z,101621.44
2023-08-17T01:43:10.598Z,101594.69
2023-08-17T01:48:13.456Z,101513.88
2023-08-17T01:53:16.171Z,101613.13
2023-08-17T01:58:20.220Z,101617.91
2023-08-17T02:03:24.168Z,101553.47
2023-08-17T02:08:27.006Z,101604.97
2023-08-17T02:13:31.581Z,101575.91
2023-08-17T02:18:39.624Z,101622.63
2023-08-17T02:23:42.424Z,101609.03
2023-08-17T02:28:46.474Z,101610.06
2023-08-17T02:33:49.832Z,101595.03
2023-08-17T02:38:52.627Z,101570.25
2023-08-17T02:43:57.544Z,101396.56
2023-08-17T02:49:00.325Z,101585.63
2023-08-17T02:54:03.097Z,101598.91
2023-08-17T02:59:07.337Z,101569.03
2023-08-17T03:04:10.063Z,101587.16
2023-08-17T03:09:12.947Z,101597.69
2023-08-17T03:14:16.980Z,101578.84
2023-08-17T03:19:20.743Z,101593.69
2023-08-17T03:24:23.947Z,101594.22
2023-08-17T03:29:29.807Z,101602.78
2023-08-17T03:34:32.990Z,101598.91
2023-08-17T03:39:37.753Z,101601.72
2023-08-17T03:44:49.742Z,101580.88
2023-08-17T03:49:53.935Z,101274.72
2023-08-17T03:54:56.645Z,101570.94
2023-08-17T04:00:00.944Z,101557.41
2023-08-17T04:05:03.865Z,101587.91
2023-08-17T04:10:08.323Z,101553.34
2023-08-17T04:15:12.622Z,101612.03
2023-08-17T04:20:37.122Z,101612.09
2023-08-17T04:25:59.829Z,101615.09
2023-08-17T04:31:27.542Z,101562.03
2023-08-17T04:36:55.809Z,101621.72
2023-08-17T04:42:21.168Z,101559.03
2023-08-17T04:47:46.029Z,101246.41
2023-08-17T04:53:09.729Z,101611.84
2023-08-17T04:58:34.394Z,101560.59
2023-08-17T05:04:01.857Z,101622.22
2023-08-17T05:09:28.498Z,101604.59
2023-08-17T05:14:32.991Z,101613.47
2023-08-17T05:19:39.161Z,101625.00
2023-08-17T05:24:42.960Z,101627.78
2023-08-17T05:29:45.823Z,101628.00
2023-08-17T05:34:57.768Z,101628.72
2023-08-17T05:40:00.678Z,101596.09
2023-08-17T05:45:08.612Z,101457.00
2023-08-17T05:50:13.167Z,101637.00
2023-08-17T05:55:15.972Z,101497.03
2023-08-17T06:00:21.854Z,101591.00
2023-08-17T06:05:27.893Z,101635.81
2023-08-17T06:10:33.942Z,101626.56
2023-08-17T06:15:37.574Z,101641.78
2023-08-17T06:20:41.665Z,101638.47
2023-08-17T06:25:44.438Z,101635.53
2023-08-17T06:30:47.317Z,101634.59
2023-08-17T06:35:52.037Z,101643.94
2023-08-17T06:40:55.079Z,101641.41
2023-08-17T06:46:00.283Z,101649.38
2023-08-17T06:51:05.883Z,101640.25
2023-08-17T06:56:08.615Z,101640.66
2023-08-17T07:01:11.416Z,101653.16
2023-08-17T07:06:15.698Z,101578.91
2023-08-17T07:11:18.445Z,101596.03
2023-08-17T07:16:21.712Z,101655.66
2023-08-17T07:21:27.661Z,101659.16
2023-08-17T07:26:30.562Z,101652.25
2023-08-17T07:31:34.632Z,101657.97
2023-08-17T07:36:39.304Z,101662.16
2023-08-17T07:41:42.480Z,101300.09
2023-08-17T07:46:45.273Z,101653.28
2023-08-17T07:51:49.422Z,101670.19
2023-08-17T07:56:52.332Z,101653.41
2023-08-17T08:01:55.108Z,101687.44
2023-08-17T08:06:59.629Z,101629.66
2023-08-17T08:12:02.441Z,101647.66
2023-08-17T08:17:05.432Z,101689.66
2023-08-17T08:22:09.568Z,101687.13
2023-08-17T08:27:12.373Z,101674.22
2023-08-17T08:32:16.172Z,101680.66
2023-08-17T08:37:20.816Z,101694.81
2023-08-17T08:42:25.501Z,101696.97
2023-08-17T08:47:29.618Z,101628.13
2023-08-17T08:52:37.045Z,101687.91
2023-08-17T08:57:41.125Z,101636.81
2023-08-17T09:02:45.082Z,101651.16
2023-08-17T09:07:50.809Z,101617.75
2023-08-17T09:12:53.758Z,101684.03
2023-08-17T09:17:57.185Z,101683.72
2023-08-17T09:23:05.448Z,101681.50
2023-08-17T09:28:13.290Z,101688.28
2023-08-17T09:33:16.504Z,101622.88
2023-08-17T09:38:21.360Z,101633.94
2023-08-17T09:43:24.359Z,101540.47
2023-08-17T09:48:33.038Z,101616.34
2023-08-17T09:53:40.579Z,101634.22
2023-08-17T09:58:43.350Z,101625.19
2023-08-17T10:03:52.478Z,101654.38
2023-08-17T10:09:00.306Z,101649.41
2023-08-17T10:14:12.096Z,101625.53
2023-08-17T10:19:22.969Z,101645.69
2023-08-17T10:24:27.393Z,101640.72
2023-08-17T10:29:31.652Z,101625.59
2023-08-17T10:34:35.700Z,101635.50
2023-08-17T10:39:48.038Z,101640.00
2023-08-17T10:44:51.036Z,101600.41
2023-08-17T10:49:57.435Z,101612.84
2023-08-17T10:55:03.343Z,101635.09
2023-08-17T11:00:22.974Z,101625.31
2023-08-17T11:05:43.838Z,101609.91
2023-08-17T11:10:59.045Z,101643.84
2023-08-17T11:16:04.209Z,101643.13
2023-08-17T11:21:08.974Z,101639.75
2023-08-17T11:26:13.270Z,101647.53
2023-08-17T11:31:16.666Z,101565.22
2023-08-17T11:36:23.941Z,101651.06
2023-08-17T11:41:28.168Z,101657.31
2023-08-17T11:46:31.102Z,101659.28
2023-08-17T11:51:34.019Z,101648.38
2023-08-17T11:56:39.127Z,101628.56
2023-08-17T12:01:42.121Z,101644.09
2023-08-17T12:06:46.508Z,101638.16
2023-08-17T12:11:50.506Z,101608.16
2023-08-17T12:16:53.832Z,101582.16
2023-08-17T12:21:56.891Z,101624.28
2023-08-17T12:27:02.549Z,101587.97
2023-08-17T12:32:06.866Z,101644.38
2023-08-17T12:37:12.637Z,101628.81
2023-08-17T12:42:21.235Z,101648.22
2023-08-17T12:47:34.525Z,101639.47
2023-08-17T12:52:40.366Z,101641.97
2023-08-17T12:57:47.296Z,101607.75
2023-08-17T13:02:52.564Z,101594.19
2023-08-17T13:07:58.490Z,101641.16
2023-08-17T13:13:02.664Z,101639.34
2023-08-17T13:18:06.056Z,101640.47
2023-08-17T13:23:11.504Z,101587.41
2023-08-17T13:28:16.264Z,101643.16
2023-08-17T13:33:19.546Z,101621.59
2023-08-17T13:38:22.401Z,101641.72
2023-08-17T13:43:26.585Z,101631.97
2023-08-17T13:48:29.865Z,101554.72
2023-08-17T13:53:32.630Z,101635.22
2023-08-17T13:58:36.739Z,101628.69
2023-08-17T14:03:39.652Z,101628.00
2023-08-17T14:08:42.645Z,101621.63
2023-08-17T14:13:46.683Z,101632.91
2023-08-17T14:18:49.406Z,101621.75
2023-08-17T14:23:52.115Z,101561.81
2023-08-17T14:28:58.924Z,101556.72
2023-08-17T14:34:07.209Z,101575.78
2023-08-17T14:39:10.215Z,101593.31
2023-08-17T14:44:18.481Z,101591.00
2023-08-17T14:49:26.777Z,101582.84
2023-08-17T14:54:30.777Z,101578.41
2023-08-17T14:59:35.430Z,101585.78
2023-08-17T15:04:39.054Z,101587.34
2023-08-17T15:09:43.169Z,101501.63
2023-08-17T15:14:47.550Z,101587.03
2023-08-17T15:19:50.862Z,101575.72
2023-08-17T15:24:55.626Z,101512.94
2023-08-17T15:30:13.356Z,101458.00
2023-08-17T15:35:17.666Z,101306.47
2023-08-17T15:40:21.298Z,101269.66
2023-08-17T15:46:24.081Z,101445.13
2023-08-17T15:57:59.013Z,101540.63
2023-08-17T16:03:41.394Z,101237.44
2023-08-17T16:09:03.306Z,101335.81
2023-08-17T16:14:50.114Z,101527.59
2023-08-17T16:20:45.088Z,101160.13
2023-08-17T16:25:53.390Z,101313.31
2023-08-17T16:31:05.558Z,101487.56
2023-08-17T16:36:11.865Z,101511.28
2023-08-17T16:41:34.946Z,101390.78
2023-08-17T16:46:41.108Z,101500.25
2023-08-17T16:51:46.967Z,101363.84
2023-08-17T16:56:59.464Z,101314.63
2023-08-17T17:02:28.123Z,101350.03
2023-08-17T17:07:38.941Z,101347.22
2023-08-17T17:12:47.801Z,101525.34
2023-08-17T17:17:51.666Z,101521.97
2023-08-17T17:22:54.873Z,101465.09
2023-08-17T17:28:15.529Z,101263.41
2023-08-17T17:33:26.083Z,101456.38
2023-08-17T17:38:29.326Z,101460.91
2023-08-17T17:43:45.636Z,101500.19
2023-08-17T17:48:48.801Z,101302.22
2023-08-17T17:53:59.740Z,101217.56
2023-08-17T17:59:11.223Z,101446.84
2023-08-17T18:04:59.102Z,101505.13
2023-08-17T18:10:05.414Z,101315.78
2023-08-17T18:15:12.328Z,101344.88
2023-08-17T18:20:15.653Z,101364.47
2023-08-17T18:25:24.215Z,101525.38
2023-08-17T18:30:37.622Z,101536.72
2023-08-17T18:35:42.850Z,101260.75
2023-08-17T18:40:49.383Z,101441.63
2023-08-17T18:45:56.345Z,101149.28
2023-08-17T18:50:59.880Z,101315.25
2023-08-17T18:56:03.056Z,101366.78
2023-08-17T19:01:07.489Z,101410.81
2023-08-17T19:06:12.752Z,101426.22
2023-08-17T19:11:18.942Z,101529.25
2023-08-17T19:16:40.243Z,101536.47
2023-08-17T19:21:48.220Z,101505.13
2023-08-17T19:26:51.673Z,101544.28
2023-08-17T19:31:57.339Z,101536.22
2023-08-17T19:37:01.462Z,101506.81
2023-08-17T19:42:04.509Z,101278.63
2023-08-17T19:47:18.243Z,101563.22
2023-08-17T19:52:30.560Z,101565.06
2023-08-17T19:57:33.906Z,101559.84
2023-08-17T20:02:38.205Z,101547.81
2023-08-17T20:07:41.450Z,101502.84
2023-08-17T20:12:46.841Z,101561.69
2023-08-17T20:17:56.492Z,101571.72
2023-08-17T20:23:00.197Z,101567.63
2023-08-17T20:28:03.962Z,101549.38
2023-08-17T20:33:08.745Z,101512.44
2023-08-17T20:38:11.605Z,101574.13
2023-08-17T20:43:14.384Z,101536.47
2023-08-17T20:48:18.599Z,101569.06
2023-08-17T20:53:21.823Z,101502.56
2023-08-17T20:58:26.434Z,101554.44
2023-08-17T21:03:30.607Z,101555.84
2023-08-17T21:08:35.188Z,101567.03
2023-08-17T21:13:38.958Z,101504.81
2023-08-17T21:18:43.112Z,101564.75
2023-08-17T21:23:47.496Z,101567.56
2023-08-17T21:28:50.440Z,101558.81
2023-08-17T21:33:54.881Z,101545.22
2023-08-17T21:38:58.412Z,101555.97
2023-08-17T21:44:04.159Z,101545.78
2023-08-17T21:49:16.744Z,101558.81
2023-08-17T21:54:19.486Z,101444.94
2023-08-17T21:59:22.202Z,101556.66
2023-08-17T22:04:33.358Z,101562.47
2023-08-17T22:09:36.228Z,101552.44
2023-08-17T22:14:38.967Z,101511.56
2023-08-17T22:19:43.239Z,101478.63
2023-08-17T22:24:51.585Z,101473.38
2023-08-17T22:29:54.938Z,101529.66
2023-08-17T22:35:09.223Z,101522.00
2023-08-17T22:40:12.807Z,101392.03
2023-08-17T22:45:18.050Z,101522.84
2023-08-17T22:50:22.320Z,101507.44
2023-08-17T22:55:25.188Z,101522.44
2023-08-17T23:00:28.500Z,101519.03
2023-08-17T23:05:32.798Z,101449.69
2023-08-17T23:10:35.637Z,101500.72
2023-08-17T23:15:38.433Z,101493.06
2023-08-17T23:20:45.081Z,101435.38
2023-08-17T23:25:48.409Z,101295.28
2023-08-17T23:30:51.246Z,101509.81
2023-08-17T23:35:56.105Z,101344.41
2023-08-17T23:40:59.018Z,101479.88
2023-08-17T23:46:01.899Z,101309.78
2023-08-17T23:51:06.085Z,101473.06
2023-08-17T23:56:09.138Z,101390.06
